sensor_id;sensor_type;location;lat;lon;timestamp;P1;durP1;ratioP1;P2;durP2;ratioP2
62929;SDS011;49036;42.782;23.108;2022-11-20T00:01:16;4.45;;;1.58;;
62929;SDS011;49036;42.782;23.108;2022-11-20T00:03:44;3.30;;;1.45;;
62929;SDS011;49036;42.782;23.108;2022-11-20T00:06:11;2.42;;;1.25;;
62929;SDS011;49036;42.782;23.108;2022-11-20T00:08:39;3.72;;;1.75;;
62929;SDS011;49036;42.782;23.108;2022-11-20T00:12:16;2.63;;;1.20;;
62929;SDS011;49036;42.782;23.108;2022-11-20T00:14:42;9.55;;;2.00;;
62929;SDS011;49036;42.782;23.108;2022-11-20T00:17:07;6.95;;;1.20;;
62929;SDS011;49036;42.782;23.108;2022-11-20T00:19:33;4.32;;;1.23;;
62929;SDS011;49036;42.782;23.108;2022-11-20T00:21:58;3.78;;;1.02;;
62929;SDS011;49036;42.782;23.108;2022-11-20T00:24:24;1.25;;;1.15;;
62929;SDS011;49036;42.782;23.108;2022-11-20T00:26:50;4.45;;;1.77;;
62929;SDS011;49036;42.782;23.108;2022-11-20T00:29:15;1.20;;;1.10;;
62929;SDS011;49036;42.782;23.108;2022-11-20T00:31:41;4.47;;;1.50;;
62929;SDS011;49036;42.782;23.108;2022-11-20T00:34:07;1.38;;;1.20;;
62929;SDS011;49036;42.782;23.108;2022-11-20T00:36:33;4.10;;;1.33;;
62929;SDS011;49036;42.782;23.108;2022-11-20T00:38:59;2.60;;;1.27;;
62929;SDS011;49036;42.782;23.108;2022-11-20T00:41:28;4.35;;;1.63;;
62929;SDS011;49036;42.782;23.108;2022-11-20T00:43:54;1.30;;;0.90;;
62929;SDS011;49036;42.782;23.108;2022-11-20T00:46:25;4.80;;;1.60;;
62929;SDS011;49036;42.782;23.108;2022-11-20T00:48:52;3.58;;;1.17;;
62929;SDS011;49036;42.782;23.108;2022-11-20T00:51:19;5.75;;;1.23;;
62929;SDS011;49036;42.782;23.108;2022-11-20T00:53:46;2.45;;;1.02;;
62929;SDS011;49036;42.782;23.108;2022-11-20T00:57:25;4.13;;;1.27;;
62929;SDS011;49036;42.782;23.108;2022-11-20T00:59:51;6.30;;;1.75;;
62929;SDS011;49036;42.782;23.108;2022-11-20T01:02:17;2.25;;;1.70;;
62929;SDS011;49036;42.782;23.108;2022-11-20T01:04:42;2.50;;;1.33;;
62929;SDS011;49036;42.782;23.108;2022-11-20T01:07:08;3.08;;;1.40;;
62929;SDS011;49036;42.782;23.108;2022-11-20T01:09:33;4.57;;;2.00;;
62929;SDS011;49036;42.782;23.108;2022-11-20T01:11:59;2.88;;;1.27;;
62929;SDS011;49036;42.782;23.108;2022-11-20T01:14:25;4.10;;;1.35;;
62929;SDS011;49036;42.782;23.108;2022-11-20T01:16:51;2.78;;;1.30;;
62929;SDS011;49036;42.782;23.108;2022-11-20T01:19:19;2.38;;;1.35;;
62929;SDS011;49036;42.782;23.108;2022-11-20T01:21:50;5.88;;;1.63;;
62929;SDS011;49036;42.782;23.108;2022-11-20T01:24:18;1.67;;;1.50;;
62929;SDS011;49036;42.782;23.108;2022-11-20T01:26:46;5.35;;;1.75;;
62929;SDS011;49036;42.782;23.108;2022-11-20T01:29:14;6.85;;;1.27;;
62929;SDS011;49036;42.782;23.108;2022-11-20T01:32:33;2.28;;;1.40;;
62929;SDS011;49036;42.782;23.108;2022-11-20T01:34:58;5.20;;;1.50;;
62929;SDS011;49036;42.782;23.108;2022-11-20T01:37:24;4.05;;;1.40;;
62929;SDS011;49036;42.782;23.108;2022-11-20T01:39:50;2.15;;;1.80;;
62929;SDS011;49036;42.782;23.108;2022-11-20T01:42:15;2.42;;;1.65;;
62929;SDS011;49036;42.782;23.108;2022-11-20T01:44:59;2.25;;;1.38;;
62929;SDS011;49036;42.782;23.108;2022-11-20T01:50:30;4.15;;;1.88;;
62929;SDS011;49036;42.782;23.108;2022-11-20T01:53:27;1.77;;;1.30;;
62929;SDS011;49036;42.782;23.108;2022-11-20T01:55:49;2.97;;;1.20;;
62929;SDS011;49036;42.782;23.108;2022-11-20T01:58:21;2.88;;;1.50;;
62929;SDS011;49036;42.782;23.108;2022-11-20T02:00:51;2.70;;;1.20;;
62929;SDS011;49036;42.782;23.108;2022-11-20T02:03:17;5.75;;;1.42;;
62929;SDS011;49036;42.782;23.108;2022-11-20T02:05:46;2.72;;;1.13;;
62929;SDS011;49036;42.782;23.108;2022-11-20T02:12:42;1.95;;;1.40;;
62929;SDS011;49036;42.782;23.108;2022-11-20T02:15:27;3.22;;;2.38;;
62929;SDS011;49036;42.782;23.108;2022-11-20T02:19:31;4.38;;;1.50;;
62929;SDS011;49036;42.782;23.108;2022-11-20T02:24:51;8.18;;;1.35;;
62929;SDS011;49036;42.782;23.108;2022-11-20T02:27:16;2.15;;;1.40;;
62929;SDS011;49036;42.782;23.108;2022-11-20T02:29:53;1.95;;;1.13;;
62929;SDS011;49036;42.782;23.108;2022-11-20T02:32:26;4.47;;;1.50;;
62929;SDS011;49036;42.782;23.108;2022-11-20T02:34:56;4.07;;;1.50;;
62929;SDS011;49036;42.782;23.108;2022-11-20T02:37:22;2.33;;;1.40;;
62929;SDS011;49036;42.782;23.108;2022-11-20T02:39:50;2.63;;;2.05;;
62929;SDS011;49036;42.782;23.108;2022-11-20T02:42:17;5.22;;;1.35;;
62929;SDS011;49036;42.782;23.108;2022-11-20T02:44:43;3.95;;;1.27;;
62929;SDS011;49036;42.782;23.108;2022-11-20T02:47:09;3.58;;;1.40;;
62929;SDS011;49036;42.782;23.108;2022-11-20T02:49:35;1.42;;;1.23;;
62929;SDS011;49036;42.782;23.108;2022-11-20T02:52:01;1.95;;;1.27;;
62929;SDS011;49036;42.782;23.108;2022-11-20T02:54:26;8.65;;;1.33;;
62929;SDS011;49036;42.782;23.108;2022-11-20T02:57:35;3.33;;;1.02;;
62929;SDS011;49036;42.782;23.108;2022-11-20T03:00:00;6.47;;;1.33;;
62929;SDS011;49036;42.782;23.108;2022-11-20T03:02:29;3.70;;;1.00;;
62929;SDS011;49036;42.782;23.108;2022-11-20T03:04:56;1.33;;;1.00;;
62929;SDS011;49036;42.782;23.108;2022-11-20T03:08:38;1.70;;;1.40;;
62929;SDS011;49036;42.782;23.108;2022-11-20T03:11:05;3.15;;;1.25;;
62929;SDS011;49036;42.782;23.108;2022-11-20T03:13:32;3.67;;;1.60;;
62929;SDS011;49036;42.782;23.108;2022-11-20T03:16:04;3.00;;;1.30;;
62929;SDS011;49036;42.782;23.108;2022-11-20T03:18:31;2.15;;;1.00;;
62929;SDS011;49036;42.782;23.108;2022-11-20T03:20:57;1.90;;;1.10;;
62929;SDS011;49036;42.782;23.108;2022-11-20T03:23:24;5.90;;;1.63;;
62929;SDS011;49036;42.782;23.108;2022-11-20T03:25:50;2.85;;;1.42;;
62929;SDS011;49036;42.782;23.108;2022-11-20T03:28:15;4.00;;;1.20;;
62929;SDS011;49036;42.782;23.108;2022-11-20T03:30:41;1.88;;;1.52;;
62929;SDS011;49036;42.782;23.108;2022-11-20T03:33:07;2.63;;;1.30;;
62929;SDS011;49036;42.782;23.108;2022-11-20T03:35:32;6.57;;;1.33;;
62929;SDS011;49036;42.782;23.108;2022-11-20T03:37:58;3.03;;;1.45;;
62929;SDS011;49036;42.782;23.108;2022-11-20T03:40:23;3.90;;;1.17;;
62929;SDS011;49036;42.782;23.108;2022-11-20T03:42:49;2.90;;;1.55;;
62929;SDS011;49036;42.782;23.108;2022-11-20T03:45:16;5.82;;;1.48;;
62929;SDS011;49036;42.782;23.108;2022-11-20T03:47:43;3.38;;;1.73;;
62929;SDS011;49036;42.782;23.108;2022-11-20T03:50:09;3.97;;;1.52;;
62929;SDS011;49036;42.782;23.108;2022-11-20T03:52:38;2.13;;;1.80;;
62929;SDS011;49036;42.782;23.108;2022-11-20T03:55:04;5.72;;;1.30;;
62929;SDS011;49036;42.782;23.108;2022-11-20T03:59:02;4.07;;;1.25;;
62929;SDS011;49036;42.782;23.108;2022-11-20T04:01:29;1.98;;;1.67;;
62929;SDS011;49036;42.782;23.108;2022-11-20T04:03:58;5.65;;;1.52;;
62929;SDS011;49036;42.782;23.108;2022-11-20T04:06:25;7.07;;;1.50;;
62929;SDS011;49036;42.782;23.108;2022-11-20T04:08:58;3.67;;;2.22;;
62929;SDS011;49036;42.782;23.108;2022-11-20T04:11:34;2.15;;;1.13;;
62929;SDS011;49036;42.782;23.108;2022-11-20T04:14:02;2.20;;;1.38;;
62929;SDS011;49036;42.782;23.108;2022-11-20T04:16:30;5.15;;;2.00;;
62929;SDS011;49036;42.782;23.108;2022-11-20T04:18:58;2.58;;;1.25;;
62929;SDS011;49036;42.782;23.108;2022-11-20T04:21:26;1.83;;;1.10;;
62929;SDS011;49036;42.782;23.108;2022-11-20T04:23:52;4.00;;;1.30;;
62929;SDS011;49036;42.782;23.108;2022-11-20T04:26:19;2.72;;;1.20;;
62929;SDS011;49036;42.782;23.108;2022-11-20T04:28:45;5.65;;;1.65;;
62929;SDS011;49036;42.782;23.108;2022-11-20T04:31:12;2.83;;;1.10;;
62929;SDS011;49036;42.782;23.108;2022-11-20T04:33:39;5.63;;;1.65;;
62929;SDS011;49036;42.782;23.108;2022-11-20T04:36:07;3.35;;;1.48;;
62929;SDS011;49036;42.782;23.108;2022-11-20T04:38:37;5.15;;;2.50;;
62929;SDS011;49036;42.782;23.108;2022-11-20T04:41:04;1.33;;;1.20;;
62929;SDS011;49036;42.782;23.108;2022-11-20T04:43:31;4.03;;;1.30;;
62929;SDS011;49036;42.782;23.108;2022-11-20T04:45:57;1.30;;;1.13;;
62929;SDS011;49036;42.782;23.108;2022-11-20T04:48:25;3.63;;;1.60;;
62929;SDS011;49036;42.782;23.108;2022-11-20T04:50:51;1.90;;;1.20;;
62929;SDS011;49036;42.782;23.108;2022-11-20T04:53:17;4.13;;;1.25;;
62929;SDS011;49036;42.782;23.108;2022-11-20T04:55:44;1.73;;;1.02;;
62929;SDS011;49036;42.782;23.108;2022-11-20T04:58:10;2.08;;;1.10;;
62929;SDS011;49036;42.782;23.108;2022-11-20T05:00:36;4.20;;;1.48;;
62929;SDS011;49036;42.782;23.108;2022-11-20T05:03:01;2.20;;;1.27;;
62929;SDS011;49036;42.782;23.108;2022-11-20T05:05:27;2.30;;;0.80;;
62929;SDS011;49036;42.782;23.108;2022-11-20T05:07:53;1.33;;;0.80;;
62929;SDS011;49036;42.782;23.108;2022-11-20T05:10:21;1.25;;;0.85;;
62929;SDS011;49036;42.782;23.108;2022-11-20T05:12:47;7.72;;;1.83;;
62929;SDS011;49036;42.782;23.108;2022-11-20T05:15:12;3.50;;;1.02;;
62929;SDS011;49036;42.782;23.108;2022-11-20T05:17:38;2.72;;;1.20;;
62929;SDS011;49036;42.782;23.108;2022-11-20T05:20:04;2.55;;;0.95;;
62929;SDS011;49036;42.782;23.108;2022-11-20T05:22:30;3.70;;;1.33;;
62929;SDS011;49036;42.782;23.108;2022-11-20T05:24:55;3.65;;;0.93;;
62929;SDS011;49036;42.782;23.108;2022-11-20T05:27:21;4.85;;;1.42;;
62929;SDS011;49036;42.782;23.108;2022-11-20T05:29:47;2.17;;;1.20;;
62929;SDS011;49036;42.782;23.108;2022-11-20T05:32:12;3.50;;;0.85;;
62929;SDS011;49036;42.782;23.108;2022-11-20T05:34:38;1.80;;;0.90;;
62929;SDS011;49036;42.782;23.108;2022-11-20T05:37:04;2.22;;;1.10;;
62929;SDS011;49036;42.782;23.108;2022-11-20T05:39:29;6.53;;;1.60;;
62929;SDS011;49036;42.782;23.108;2022-11-20T05:41:55;3.65;;;1.05;;
62929;SDS011;49036;42.782;23.108;2022-11-20T05:44:40;1.80;;;0.80;;
62929;SDS011;49036;42.782;23.108;2022-11-20T05:47:05;4.50;;;0.70;;
62929;SDS011;49036;42.782;23.108;2022-11-20T05:49:31;3.70;;;1.20;;
62929;SDS011;49036;42.782;23.108;2022-11-20T05:51:57;3.55;;;1.60;;
62929;SDS011;49036;42.782;23.108;2022-11-20T05:54:23;1.55;;;1.30;;
62929;SDS011;49036;42.782;23.108;2022-11-20T05:56:48;3.60;;;1.10;;
62929;SDS011;49036;42.782;23.108;2022-11-20T05:59:14;11.02;;;1.75;;
62929;SDS011;49036;42.782;23.108;2022-11-20T06:01:40;3.28;;;1.92;;
62929;SDS011;49036;42.782;23.108;2022-11-20T06:04:05;1.42;;;1.00;;
62929;SDS011;49036;42.782;23.108;2022-11-20T06:06:31;7.20;;;1.58;;
62929;SDS011;49036;42.782;23.108;2022-11-20T06:08:57;3.70;;;2.13;;
62929;SDS011;49036;42.782;23.108;2022-11-20T06:11:24;6.90;;;1.42;;
62929;SDS011;49036;42.782;23.108;2022-11-20T06:13:50;6.13;;;1.45;;
62929;SDS011;49036;42.782;23.108;2022-11-20T06:16:17;7.57;;;1.40;;
62929;SDS011;49036;42.782;23.108;2022-11-20T06:18:44;5.88;;;1.60;;
62929;SDS011;49036;42.782;23.108;2022-11-20T06:21:14;3.58;;;0.82;;
62929;SDS011;49036;42.782;23.108;2022-11-20T06:23:41;2.03;;;1.05;;
62929;SDS011;49036;42.782;23.108;2022-11-20T06:26:12;2.45;;;0.90;;
62929;SDS011;49036;42.782;23.108;2022-11-20T06:28:39;4.05;;;1.10;;
62929;SDS011;49036;42.782;23.108;2022-11-20T06:31:06;1.13;;;0.93;;
62929;SDS011;49036;42.782;23.108;2022-11-20T06:33:32;6.05;;;1.67;;
62929;SDS011;49036;42.782;23.108;2022-11-20T06:35:58;1.80;;;1.40;;
62929;SDS011;49036;42.782;23.108;2022-11-20T06:38:50;5.05;;;1.00;;
62929;SDS011;49036;42.782;23.108;2022-11-20T06:41:17;2.53;;;1.50;;
62929;SDS011;49036;42.782;23.108;2022-11-20T06:43:45;3.97;;;1.27;;
62929;SDS011;49036;42.782;23.108;2022-11-20T06:46:11;2.15;;;1.10;;
62929;SDS011;49036;42.782;23.108;2022-11-20T07:01:00;4.45;;;1.10;;
62929;SDS011;49036;42.782;23.108;2022-11-20T07:03:27;1.27;;;1.10;;
62929;SDS011;49036;42.782;23.108;2022-11-20T07:05:57;1.20;;;1.10;;
62929;SDS011;49036;42.782;23.108;2022-11-20T07:08:23;2.90;;;1.17;;
62929;SDS011;49036;42.782;23.108;2022-11-20T07:10:49;3.20;;;1.52;;
62929;SDS011;49036;42.782;23.108;2022-11-20T07:13:14;2.05;;;1.45;;
62929;SDS011;49036;42.782;23.108;2022-11-20T07:15:40;3.70;;;1.50;;
62929;SDS011;49036;42.782;23.108;2022-11-20T07:18:05;1.50;;;1.40;;
62929;SDS011;49036;42.782;23.108;2022-11-20T07:20:31;1.88;;;1.27;;
62929;SDS011;49036;42.782;23.108;2022-11-20T07:22:57;1.73;;;1.40;;
62929;SDS011;49036;42.782;23.108;2022-11-20T07:25:23;2.20;;;1.23;;
62929;SDS011;49036;42.782;23.108;2022-11-20T07:27:49;1.30;;;1.20;;
62929;SDS011;49036;42.782;23.108;2022-11-20T07:30:15;4.35;;;1.27;;
62929;SDS011;49036;42.782;23.108;2022-11-20T07:32:41;1.40;;;1.30;;
62929;SDS011;49036;42.782;23.108;2022-11-20T07:35:07;2.22;;;1.10;;
62929;SDS011;49036;42.782;23.108;2022-11-20T07:37:35;1.40;;;1.30;;
62929;SDS011;49036;42.782;23.108;2022-11-20T07:40:01;2.80;;;1.17;;
62929;SDS011;49036;42.782;23.108;2022-11-20T07:42:27;3.72;;;1.58;;
62929;SDS011;49036;42.782;23.108;2022-11-20T07:44:52;2.72;;;1.48;;
62929;SDS011;49036;42.782;23.108;2022-11-20T07:47:18;1.75;;;1.35;;
62929;SDS011;49036;42.782;23.108;2022-11-20T07:49:43;3.97;;;1.48;;
62929;SDS011;49036;42.782;23.108;2022-11-20T07:52:09;5.03;;;1.80;;
62929;SDS011;49036;42.782;23.108;2022-11-20T07:54:34;4.45;;;2.05;;
62929;SDS011;49036;42.782;23.108;2022-11-20T07:56:59;4.72;;;1.48;;
62929;SDS011;49036;42.782;23.108;2022-11-20T07:59:25;2.95;;;1.50;;
62929;SDS011;49036;42.782;23.108;2022-11-20T08:01:50;3.58;;;1.33;;
62929;SDS011;49036;42.782;23.108;2022-11-20T08:04:16;3.53;;;1.70;;
62929;SDS011;49036;42.782;23.108;2022-11-20T08:06:41;5.20;;;1.67;;
62929;SDS011;49036;42.782;23.108;2022-11-20T08:09:07;5.00;;;1.80;;
62929;SDS011;49036;42.782;23.108;2022-11-20T08:11:32;1.58;;;1.30;;
62929;SDS011;49036;42.782;23.108;2022-11-20T08:14:16;6.95;;;1.60;;
62929;SDS011;49036;42.782;23.108;2022-11-20T08:16:46;2.67;;;1.35;;
62929;SDS011;49036;42.782;23.108;2022-11-20T08:19:14;4.72;;;1.55;;
62929;SDS011;49036;42.782;23.108;2022-11-20T08:21:41;4.40;;;2.55;;
62929;SDS011;49036;42.782;23.108;2022-11-20T08:24:09;20.88;;;7.63;;
62929;SDS011;49036;42.782;23.108;2022-11-20T08:26:35;5.57;;;3.05;;
62929;SDS011;49036;42.782;23.108;2022-11-20T08:29:02;29.10;;;11.88;;
62929;SDS011;49036;42.782;23.108;2022-11-20T08:31:28;10.52;;;4.72;;
62929;SDS011;49036;42.782;23.108;2022-11-20T08:33:54;8.10;;;2.33;;
62929;SDS011;49036;42.782;23.108;2022-11-20T08:36:19;6.45;;;2.75;;
62929;SDS011;49036;42.782;23.108;2022-11-20T08:38:46;6.43;;;2.78;;
62929;SDS011;49036;42.782;23.108;2022-11-20T08:41:13;8.68;;;1.38;;
62929;SDS011;49036;42.782;23.108;2022-11-20T08:44:03;12.75;;;2.13;;
62929;SDS011;49036;42.782;23.108;2022-11-20T08:46:35;4.50;;;2.00;;
62929;SDS011;49036;42.782;23.108;2022-11-20T08:49:03;16.38;;;6.88;;
62929;SDS011;49036;42.782;23.108;2022-11-20T08:51:31;11.80;;;5.28;;
62929;SDS011;49036;42.782;23.108;2022-11-20T08:53:57;22.33;;;11.13;;
62929;SDS011;49036;42.782;23.108;2022-11-20T08:56:23;5.45;;;3.00;;
62929;SDS011;49036;42.782;23.108;2022-11-20T08:58:49;11.07;;;3.42;;
62929;SDS011;49036;42.782;23.108;2022-11-20T09:01:17;7.50;;;4.10;;
62929;SDS011;49036;42.782;23.108;2022-11-20T09:03:43;8.15;;;2.53;;
62929;SDS011;49036;42.782;23.108;2022-11-20T09:07:06;3.25;;;2.25;;
62929;SDS011;49036;42.782;23.108;2022-11-20T09:09:31;5.38;;;2.05;;
62929;SDS011;49036;42.782;23.108;2022-11-20T09:11:57;6.93;;;2.42;;
62929;SDS011;49036;42.782;23.108;2022-11-20T09:14:23;6.28;;;2.15;;
62929;SDS011;49036;42.782;23.108;2022-11-20T09:16:54;4.25;;;2.08;;
62929;SDS011;49036;42.782;23.108;2022-11-20T09:19:20;4.20;;;1.60;;
62929;SDS011;49036;42.782;23.108;2022-11-20T09:21:45;8.90;;;3.30;;
62929;SDS011;49036;42.782;23.108;2022-11-20T09:24:11;3.72;;;1.80;;
62929;SDS011;49036;42.782;23.108;2022-11-20T09:26:36;6.47;;;3.72;;
62929;SDS011;49036;42.782;23.108;2022-11-20T09:29:02;3.95;;;1.80;;
62929;SDS011;49036;42.782;23.108;2022-11-20T09:31:27;1.38;;;1.27;;
62929;SDS011;49036;42.782;23.108;2022-11-20T09:33:53;11.93;;;3.85;;
62929;SDS011;49036;42.782;23.108;2022-11-20T09:36:18;11.38;;;5.97;;
62929;SDS011;49036;42.782;23.108;2022-11-20T09:38:44;9.95;;;4.20;;
62929;SDS011;49036;42.782;23.108;2022-11-20T09:41:19;7.95;;;3.60;;
62929;SDS011;49036;42.782;23.108;2022-11-20T09:52:22;1.60;;;1.50;;
62929;SDS011;49036;42.782;23.108;2022-11-20T09:54:54;2.88;;;1.40;;
62929;SDS011;49036;42.782;23.108;2022-11-20T09:57:21;10.82;;;2.35;;
62929;SDS011;49036;42.782;23.108;2022-11-20T09:59:54;7.18;;;2.20;;
62929;SDS011;49036;42.782;23.108;2022-11-20T10:11:04;7.13;;;1.42;;
62929;SDS011;49036;42.782;23.108;2022-11-20T10:18:48;5.60;;;1.55;;
62929;SDS011;49036;42.782;23.108;2022-11-20T10:24:00;3.40;;;1.70;;
62929;SDS011;49036;42.782;23.108;2022-11-20T10:28:54;8.98;;;2.25;;
62929;SDS011;49036;42.782;23.108;2022-11-20T10:31:27;11.52;;;2.90;;
62929;SDS011;49036;42.782;23.108;2022-11-20T10:33:58;7.40;;;3.75;;
62929;SDS011;49036;42.782;23.108;2022-11-20T10:36:35;8.73;;;2.58;;
62929;SDS011;49036;42.782;23.108;2022-11-20T10:39:26;9.98;;;1.83;;
62929;SDS011;49036;42.782;23.108;2022-11-20T10:42:08;6.75;;;2.40;;
62929;SDS011;49036;42.782;23.108;2022-11-20T10:44:39;8.50;;;2.38;;
62929;SDS011;49036;42.782;23.108;2022-11-20T10:47:26;8.32;;;2.60;;
62929;SDS011;49036;42.782;23.108;2022-11-20T10:49:55;7.68;;;2.13;;
62929;SDS011;49036;42.782;23.108;2022-11-20T10:57:47;5.13;;;1.60;;
62929;SDS011;49036;42.782;23.108;2022-11-20T11:00:16;2.13;;;1.05;;
62929;SDS011;49036;42.782;23.108;2022-11-20T11:02:49;9.13;;;2.40;;
62929;SDS011;49036;42.782;23.108;2022-11-20T11:08:10;31.80;;;9.20;;
62929;SDS011;49036;42.782;23.108;2022-11-20T11:10:47;14.70;;;5.75;;
62929;SDS011;49036;42.782;23.108;2022-11-20T11:13:21;6.53;;;2.38;;
62929;SDS011;49036;42.782;23.108;2022-11-20T11:15:50;5.90;;;2.65;;
62929;SDS011;49036;42.782;23.108;2022-11-20T11:18:26;6.93;;;3.65;;
62929;SDS011;49036;42.782;23.108;2022-11-20T11:20:55;4.72;;;1.33;;
62929;SDS011;49036;42.782;23.108;2022-11-20T11:26:02;2.58;;;1.27;;
62929;SDS011;49036;42.782;23.108;2022-11-20T11:28:29;4.07;;;1.25;;
62929;SDS011;49036;42.782;23.108;2022-11-20T11:33:31;2.65;;;1.42;;
62929;SDS011;49036;42.782;23.108;2022-11-20T11:36:02;2.17;;;0.90;;
62929;SDS011;49036;42.782;23.108;2022-11-20T11:38:34;3.05;;;1.00;;
62929;SDS011;49036;42.782;23.108;2022-11-20T11:41:03;4.97;;;1.65;;
62929;SDS011;49036;42.782;23.108;2022-11-20T11:43:33;1.92;;;0.68;;
62929;SDS011;49036;42.782;23.108;2022-11-20T11:46:32;3.38;;;1.10;;
62929;SDS011;49036;42.782;23.108;2022-11-20T11:49:00;2.30;;;0.95;;
62929;SDS011;49036;42.782;23.108;2022-11-20T11:51:47;1.25;;;1.00;;
62929;SDS011;49036;42.782;23.108;2022-11-20T11:54:34;4.30;;;0.95;;
62929;SDS011;49036;42.782;23.108;2022-11-20T12:00:12;2.20;;;1.15;;
62929;SDS011;49036;42.782;23.108;2022-11-20T12:16:09;6.72;;;1.40;;
62929;SDS011;49036;42.782;23.108;2022-11-20T12:18:40;4.88;;;1.88;;
62929;SDS011;49036;42.782;23.108;2022-11-20T12:29:23;3.83;;;1.55;;
62929;SDS011;49036;42.782;23.108;2022-11-20T12:32:06;2.55;;;1.00;;
62929;SDS011;49036;42.782;23.108;2022-11-20T12:34:52;5.38;;;1.33;;
62929;SDS011;49036;42.782;23.108;2022-11-20T12:38:15;4.07;;;1.40;;
62929;SDS011;49036;42.782;23.108;2022-11-20T12:40:40;2.33;;;2.00;;
62929;SDS011;49036;42.782;23.108;2022-11-20T12:48:49;6.18;;;1.17;;
62929;SDS011;49036;42.782;23.108;2022-11-20T12:51:30;2.55;;;1.60;;
62929;SDS011;49036;42.782;23.108;2022-11-20T12:54:11;4.20;;;1.25;;
62929;SDS011;49036;42.782;23.108;2022-11-20T12:57:04;2.00;;;1.02;;
62929;SDS011;49036;42.782;23.108;2022-11-20T13:07:12;6.13;;;1.40;;
62929;SDS011;49036;42.782;23.108;2022-11-20T13:09:47;6.57;;;1.55;;
62929;SDS011;49036;42.782;23.108;2022-11-20T13:12:35;3.03;;;1.00;;
62929;SDS011;49036;42.782;23.108;2022-11-20T13:18:14;1.60;;;1.42;;
62929;SDS011;49036;42.782;23.108;2022-11-20T13:20:44;2.45;;;1.50;;
62929;SDS011;49036;42.782;23.108;2022-11-20T13:23:11;1.50;;;1.10;;
62929;SDS011;49036;42.782;23.108;2022-11-20T13:25:47;2.65;;;1.48;;
62929;SDS011;49036;42.782;23.108;2022-11-20T13:33:23;4.50;;;1.08;;
62929;SDS011;49036;42.782;23.108;2022-11-20T13:36:04;2.97;;;1.40;;
62929;SDS011;49036;42.782;23.108;2022-11-20T13:38:48;5.03;;;1.40;;
62929;SDS011;49036;42.782;23.108;2022-11-20T13:41:25;3.28;;;1.23;;
62929;SDS011;49036;42.782;23.108;2022-11-20T13:46:35;3.15;;;1.10;;
62929;SDS011;49036;42.782;23.108;2022-11-20T13:49:27;1.52;;;1.20;;
62929;SDS011;49036;42.782;23.108;2022-11-20T13:55:02;0.98;;;0.98;;
62929;SDS011;49036;42.782;23.108;2022-11-20T14:00:29;2.53;;;1.00;;
62929;SDS011;49036;42.782;23.108;2022-11-20T14:05:26;4.18;;;1.10;;
62929;SDS011;49036;42.782;23.108;2022-11-20T14:10:27;1.73;;;1.13;;
62929;SDS011;49036;42.782;23.108;2022-11-20T14:12:54;1.25;;;0.85;;
62929;SDS011;49036;42.782;23.108;2022-11-20T14:17:50;1.23;;;1.02;;
62929;SDS011;49036;42.782;23.108;2022-11-20T14:22:49;0.82;;;0.82;;
62929;SDS011;49036;42.782;23.108;2022-11-20T14:30:14;1.23;;;1.00;;
62929;SDS011;49036;42.782;23.108;2022-11-20T14:32:43;3.00;;;0.70;;
62929;SDS011;49036;42.782;23.108;2022-11-20T14:35:13;1.85;;;1.02;;
62929;SDS011;49036;42.782;23.108;2022-11-20T14:37:44;1.40;;;1.15;;
62929;SDS011;49036;42.782;23.108;2022-11-20T14:42:55;5.20;;;1.77;;
62929;SDS011;49036;42.782;23.108;2022-11-20T14:45:22;4.63;;;1.20;;
62929;SDS011;49036;42.782;23.108;2022-11-20T14:47:48;3.63;;;1.45;;
62929;SDS011;49036;42.782;23.108;2022-11-20T14:50:22;3.30;;;1.55;;
62929;SDS011;49036;42.782;23.108;2022-11-20T14:52:54;6.53;;;1.63;;
62929;SDS011;49036;42.782;23.108;2022-11-20T14:55:34;2.92;;;1.63;;
62929;SDS011;49036;42.782;23.108;2022-11-20T14:58:02;5.15;;;1.42;;
62929;SDS011;49036;42.782;23.108;2022-11-20T15:00:52;1.48;;;1.38;;
62929;SDS011;49036;42.782;23.108;2022-11-20T15:03:19;3.22;;;1.73;;
62929;SDS011;49036;42.782;23.108;2022-11-20T15:08:13;1.20;;;1.10;;
62929;SDS011;49036;42.782;23.108;2022-11-20T15:10:44;2.75;;;1.60;;
62929;SDS011;49036;42.782;23.108;2022-11-20T15:13:12;2.22;;;1.33;;
62929;SDS011;49036;42.782;23.108;2022-11-20T15:18:14;6.10;;;2.22;;
62929;SDS011;49036;42.782;23.108;2022-11-20T15:20:43;6.63;;;2.05;;
62929;SDS011;49036;42.782;23.108;2022-11-20T15:23:14;4.55;;;1.83;;
62929;SDS011;49036;42.782;23.108;2022-11-20T15:25:40;8.45;;;2.53;;
62929;SDS011;49036;42.782;23.108;2022-11-20T15:30:43;1.67;;;1.08;;
62929;SDS011;49036;42.782;23.108;2022-11-20T15:33:09;5.40;;;1.73;;
62929;SDS011;49036;42.782;23.108;2022-11-20T15:38:00;3.63;;;1.63;;
62929;SDS011;49036;42.782;23.108;2022-11-20T15:42:51;4.23;;;1.40;;
62929;SDS011;49036;42.782;23.108;2022-11-20T15:45:32;7.03;;;1.90;;
62929;SDS011;49036;42.782;23.108;2022-11-20T15:48:02;5.90;;;1.58;;
62929;SDS011;49036;42.782;23.108;2022-11-20T15:50:36;5.45;;;2.03;;
62929;SDS011;49036;42.782;23.108;2022-11-20T15:53:04;5.97;;;2.10;;
62929;SDS011;49036;42.782;23.108;2022-11-20T15:55:30;3.00;;;1.52;;
62929;SDS011;49036;42.782;23.108;2022-11-20T15:57:56;7.10;;;2.63;;
62929;SDS011;49036;42.782;23.108;2022-11-20T16:00:22;6.97;;;1.98;;
62929;SDS011;49036;42.782;23.108;2022-11-20T16:05:12;3.70;;;1.47;;
62929;SDS011;49036;42.782;23.108;2022-11-20T16:07:39;4.10;;;1.73;;
62929;SDS011;49036;42.782;23.108;2022-11-20T16:10:05;2.17;;;1.65;;
62929;SDS011;49036;42.782;23.108;2022-11-20T16:12:31;3.17;;;1.92;;
62929;SDS011;49036;42.782;23.108;2022-11-20T16:15:15;3.75;;;1.83;;
62929;SDS011;49036;42.782;23.108;2022-11-20T16:17:59;3.28;;;2.00;;
62929;SDS011;49036;42.782;23.108;2022-11-20T16:20:24;5.70;;;1.67;;
62929;SDS011;49036;42.782;23.108;2022-11-20T16:25:15;4.93;;;2.55;;
62929;SDS011;49036;42.782;23.108;2022-11-20T16:30:06;10.67;;;6.40;;
62929;SDS011;49036;42.782;23.108;2022-11-20T16:32:32;24.33;;;14.15;;
62929;SDS011;49036;42.782;23.108;2022-11-20T16:37:23;41.45;;;19.45;;
62929;SDS011;49036;42.782;23.108;2022-11-20T16:42:14;34.42;;;16.13;;
62929;SDS011;49036;42.782;23.108;2022-11-20T16:44:40;12.88;;;9.27;;
62929;SDS011;49036;42.782;23.108;2022-11-20T16:49:30;12.37;;;6.33;;
62929;SDS011;49036;42.782;23.108;2022-11-20T16:51:57;9.88;;;6.82;;
62929;SDS011;49036;42.782;23.108;2022-11-20T16:54:23;8.55;;;3.60;;
62929;SDS011;49036;42.782;23.108;2022-11-20T16:59:15;8.30;;;3.47;;
62929;SDS011;49036;42.782;23.108;2022-11-20T17:04:08;11.20;;;5.80;;
62929;SDS011;49036;42.782;23.108;2022-11-20T17:06:34;8.90;;;4.38;;
62929;SDS011;49036;42.782;23.108;2022-11-20T17:09:02;9.35;;;4.00;;
62929;SDS011;49036;42.782;23.108;2022-11-20T17:11:28;10.80;;;6.78;;
62929;SDS011;49036;42.782;23.108;2022-11-20T17:16:21;11.95;;;5.10;;
62929;SDS011;49036;42.782;23.108;2022-11-20T17:18:48;8.25;;;4.10;;
62929;SDS011;49036;42.782;23.108;2022-11-20T17:21:14;13.30;;;8.35;;
62929;SDS011;49036;42.782;23.108;2022-11-20T17:23:42;8.23;;;3.60;;
62929;SDS011;49036;42.782;23.108;2022-11-20T17:26:10;10.73;;;4.30;;
62929;SDS011;49036;42.782;23.108;2022-11-20T17:28:47;14.18;;;7.47;;
62929;SDS011;49036;42.782;23.108;2022-11-20T17:31:18;15.85;;;5.30;;
62929;SDS011;49036;42.782;23.108;2022-11-20T17:33:44;5.32;;;3.78;;
62929;SDS011;49036;42.782;23.108;2022-11-20T17:36:11;8.43;;;4.57;;
62929;SDS011;49036;42.782;23.108;2022-11-20T17:38:38;6.45;;;4.38;;
62929;SDS011;49036;42.782;23.108;2022-11-20T17:41:08;5.43;;;4.47;;
62929;SDS011;49036;42.782;23.108;2022-11-20T17:43:36;9.32;;;5.43;;